DLH7CL LSZH-EDDM
Flight info
| Callsign | DLH7CL |
|---|---|
| Flight time | N/A |
| Altitude | 20000 |
| Route | DEGES Z6 NUNRI/N0372F190 T103 BETOS BETOS1B |
| Aircraft | A321/M-SDE3FGHIRWY/LB1 |
Departure
| Time | 2026-02-18 09:37 |
|---|---|
| Airport | Zürich Airport (LSZH) |
Arrival
| Time | N/A |
|---|---|
| Airport | Munich Airport (EDDM) |
| Time | Latitude | Longitude | Altitude | Speed | Heading |
|---|---|---|---|---|---|
| 2026-02-18 09:16 | 47.45348 | 8.55701 | 1400 ft | 0 kts | 6° |
| 2026-02-18 09:28 | 47.45342 | 8.55699 | 1400 ft | 2 kts | 6° |
| 2026-02-18 09:28 | 47.45327 | 8.55697 | 1400 ft | 2 kts | 6° |
| 2026-02-18 09:29 | 47.45318 | 8.55696 | 1400 ft | 1 kts | 6° |
| 2026-02-18 09:29 | 47.45289 | 8.55703 | 1400 ft | 2 kts | 333° |
| 2026-02-18 09:29 | 47.45276 | 8.55715 | 1400 ft | 2 kts | 315° |
| 2026-02-18 09:30 | 47.45266 | 8.55733 | 1400 ft | 2 kts | 298° |
| 2026-02-18 09:30 | 47.45261 | 8.55754 | 1401 ft | 2 kts | 282° |
| 2026-02-18 09:30 | 47.45260 | 8.55764 | 1401 ft | 1 kts | 274° |
| 2026-02-18 09:30 | 47.45260 | 8.55769 | 1401 ft | 0 kts | 276° |
| 2026-02-18 09:32 | 47.45260 | 8.55764 | 1401 ft | 1 kts | 278° |
| 2026-02-18 09:32 | 47.45264 | 8.55726 | 1400 ft | 5 kts | 278° |
| 2026-02-18 09:33 | 47.45270 | 8.55653 | 1399 ft | 8 kts | 277° |
| 2026-02-18 09:33 | 47.45320 | 8.55448 | 1397 ft | 12 kts | 298° |
| 2026-02-18 09:33 | 47.45365 | 8.55321 | 1396 ft | 14 kts | 298° |
| 2026-02-18 09:34 | 47.45409 | 8.55174 | 1394 ft | 16 kts | 289° |
| 2026-02-18 09:34 | 47.45448 | 8.55011 | 1393 ft | 17 kts | 290° |
| 2026-02-18 09:34 | 47.45489 | 8.54832 | 1392 ft | 18 kts | 289° |
| 2026-02-18 09:34 | 47.45529 | 8.54646 | 1390 ft | 19 kts | 288° |
| 2026-02-18 09:35 | 47.45572 | 8.54456 | 1389 ft | 18 kts | 289° |
| 2026-02-18 09:35 | 47.45610 | 8.54286 | 1388 ft | 17 kts | 289° |
| 2026-02-18 09:35 | 47.45647 | 8.54117 | 1388 ft | 17 kts | 288° |
| 2026-02-18 09:35 | 47.45685 | 8.53942 | 1389 ft | 17 kts | 288° |
| 2026-02-18 09:36 | 47.45739 | 8.53782 | 1389 ft | 17 kts | 322° |
| 2026-02-18 09:36 | 47.45855 | 8.53787 | 1389 ft | 17 kts | 40° |
| 2026-02-18 09:36 | 47.45879 | 8.53961 | 1389 ft | 18 kts | 94° |
| 2026-02-18 09:36 | 47.45838 | 8.54479 | 1389 ft | 91 kts | 96° |
| 2026-02-18 09:37 | 47.45752 | 8.55767 | 1404 ft | 161 kts | 96° |
| 2026-02-18 09:37 | 47.45610 | 8.59303 | 2889 ft | 176 kts | 92° |
| 2026-02-18 09:37 | 47.45573 | 8.61110 | 3518 ft | 182 kts | 94° |
| 2026-02-18 09:38 | 47.45474 | 8.63015 | 3870 ft | 193 kts | 95° |
| 2026-02-18 09:38 | 47.45433 | 8.65037 | 4279 ft | 203 kts | 91° |
| 2026-02-18 09:38 | 47.45529 | 8.67228 | 4554 ft | 223 kts | 82° |
| 2026-02-18 09:38 | 47.45837 | 8.69550 | 4912 ft | 240 kts | 81° |
| 2026-02-18 09:39 | 47.46104 | 8.72054 | 5340 ft | 254 kts | 83° |
| 2026-02-18 09:39 | 47.46357 | 8.74719 | 5753 ft | 269 kts | 84° |
| 2026-02-18 09:39 | 47.46611 | 8.77501 | 6373 ft | 276 kts | 86° |
| 2026-02-18 09:39 | 47.46725 | 8.80355 | 7015 ft | 280 kts | 91° |
| 2026-02-18 09:40 | 47.46604 | 8.83260 | 7692 ft | 283 kts | 100° |
| 2026-02-18 09:40 | 47.46236 | 8.86101 | 8354 ft | 286 kts | 104° |
| 2026-02-18 09:40 | 47.45790 | 8.88989 | 8984 ft | 291 kts | 104° |
| 2026-02-18 09:40 | 47.45340 | 8.91929 | 9554 ft | 297 kts | 103° |
| 2026-02-18 09:41 | 47.44898 | 8.94932 | 10185 ft | 300 kts | 102° |
| 2026-02-18 09:41 | 47.43988 | 9.01263 | 10849 ft | 327 kts | 102° |
| 2026-02-18 09:41 | 47.43504 | 9.04643 | 11137 ft | 342 kts | 102° |
| 2026-02-18 09:42 | 47.43003 | 9.08121 | 11336 ft | 357 kts | 102° |
| 2026-02-18 09:42 | 47.42468 | 9.11821 | 11623 ft | 370 kts | 102° |
| 2026-02-18 09:42 | 47.41925 | 9.15565 | 12075 ft | 377 kts | 101° |
| 2026-02-18 09:42 | 47.41681 | 9.19427 | 12541 ft | 382 kts | 84° |
| 2026-02-18 09:43 | 47.42334 | 9.23235 | 13128 ft | 381 kts | 62° |
| 2026-02-18 09:43 | 47.43613 | 9.26665 | 13671 ft | 382 kts | 56° |
| 2026-02-18 09:43 | 47.44984 | 9.30050 | 14173 ft | 386 kts | 55° |
| 2026-02-18 09:43 | 47.46368 | 9.33476 | 14674 ft | 391 kts | 55° |
| 2026-02-18 09:44 | 47.47758 | 9.36973 | 15174 ft | 395 kts | 55° |
| 2026-02-18 09:44 | 47.49137 | 9.40490 | 15672 ft | 399 kts | 55° |
| 2026-02-18 09:44 | 47.50522 | 9.44052 | 16178 ft | 403 kts | 55° |
| 2026-02-18 09:44 | 47.51926 | 9.47688 | 16681 ft | 406 kts | 55° |
| 2026-02-18 09:45 | 47.53329 | 9.51328 | 17157 ft | 409 kts | 55° |
| 2026-02-18 09:45 | 47.56170 | 9.58716 | 18125 ft | 415 kts | 54° |
| 2026-02-18 09:45 | 47.57542 | 9.62481 | 18552 ft | 422 kts | 60° |
| 2026-02-18 09:46 | 47.58410 | 9.66686 | 18983 ft | 433 kts | 77° |
| 2026-02-18 09:46 | 47.58587 | 9.71156 | 19465 ft | 439 kts | 89° |
| 2026-02-18 09:46 | 47.58413 | 9.75722 | 19888 ft | 442 kts | 91° |
| 2026-02-18 09:46 | 47.58178 | 9.80268 | 20003 ft | 444 kts | 92° |
| 2026-02-18 09:47 | 47.57946 | 9.84848 | 20007 ft | 443 kts | 91° |
| 2026-02-18 09:47 | 47.57731 | 9.89365 | 19969 ft | 443 kts | 91° |
| 2026-02-18 09:47 | 47.57525 | 9.93969 | 19957 ft | 443 kts | 91° |
| 2026-02-18 09:47 | 47.57333 | 9.98470 | 19977 ft | 442 kts | 91° |
| 2026-02-18 09:48 | 47.57141 | 10.03009 | 19923 ft | 442 kts | 91° |
| 2026-02-18 09:48 | 47.56947 | 10.07584 | 19961 ft | 442 kts | 91° |